sensor_id;sensor_type;location;lat;lon;timestamp;P1;durP1;ratioP1;P2;durP2;ratioP2
54005;SDS011;39919;38.160;-122.260;2023-02-07T00:01:53;0.55;;;0.00;;
54005;SDS011;39919;38.160;-122.260;2023-02-07T00:04:23;0.30;;;0.03;;
54005;SDS011;39919;38.160;-122.260;2023-02-07T00:06:52;0.63;;;0.00;;
54005;SDS011;39919;38.160;-122.260;2023-02-07T00:09:23;0.30;;;0.00;;
54005;SDS011;39919;38.160;-122.260;2023-02-07T00:11:53;0.40;;;0.00;;
54005;SDS011;39919;38.160;-122.260;2023-02-07T00:14:24;1.65;;;0.20;;
54005;SDS011;39919;38.160;-122.260;2023-02-07T00:16:53;0.20;;;0.00;;
54005;SDS011;39919;38.160;-122.260;2023-02-07T00:19:26;1.05;;;0.00;;
54005;SDS011;39919;38.160;-122.260;2023-02-07T00:21:57;0.90;;;0.10;;
54005;SDS011;39919;38.160;-122.260;2023-02-07T00:24:27;0.52;;;0.00;;
54005;SDS011;39919;38.160;-122.260;2023-02-07T00:26:56;2.65;;;0.00;;
54005;SDS011;39919;38.160;-122.260;2023-02-07T00:29:27;0.10;;;0.00;;
54005;SDS011;39919;38.160;-122.260;2023-02-07T00:31:57;0.00;;;0.00;;
54005;SDS011;39919;38.160;-122.260;2023-02-07T00:34:26;1.60;;;0.00;;
54005;SDS011;39919;38.160;-122.260;2023-02-07T00:36:56;0.40;;;0.00;;
54005;SDS011;39919;38.160;-122.260;2023-02-07T00:39:25;0.70;;;0.10;;
54005;SDS011;39919;38.160;-122.260;2023-02-07T00:41:55;0.08;;;0.00;;
54005;SDS011;39919;38.160;-122.260;2023-02-07T00:44:24;1.35;;;0.10;;
54005;SDS011;39919;38.160;-122.260;2023-02-07T00:46:55;2.22;;;0.00;;
54005;SDS011;39919;38.160;-122.260;2023-02-07T00:49:24;1.45;;;0.00;;
54005;SDS011;39919;38.160;-122.260;2023-02-07T00:51:56;1.65;;;0.10;;
54005;SDS011;39919;38.160;-122.260;2023-02-07T00:54:25;0.08;;;0.00;;
54005;SDS011;39919;38.160;-122.260;2023-02-07T00:56:54;1.08;;;0.32;;
54005;SDS011;39919;38.160;-122.260;2023-02-07T00:59:24;0.55;;;0.10;;
54005;SDS011;39919;38.160;-122.260;2023-02-07T01:01:55;0.30;;;0.00;;
54005;SDS011;39919;38.160;-122.260;2023-02-07T01:04:24;0.10;;;0.08;;
54005;SDS011;39919;38.160;-122.260;2023-02-07T01:06:54;0.08;;;0.00;;
54005;SDS011;39919;38.160;-122.260;2023-02-07T01:09:23;0.43;;;0.00;;
54005;SDS011;39919;38.160;-122.260;2023-02-07T01:11:52;0.60;;;0.05;;
54005;SDS011;39919;38.160;-122.260;2023-02-07T01:14:22;2.05;;;0.10;;
54005;SDS011;39919;38.160;-122.260;2023-02-07T01:16:51;0.93;;;0.45;;
54005;SDS011;39919;38.160;-122.260;2023-02-07T01:19:22;0.47;;;0.00;;
54005;SDS011;39919;38.160;-122.260;2023-02-07T01:21:51;1.70;;;0.10;;
54005;SDS011;39919;38.160;-122.260;2023-02-07T01:24:20;0.80;;;0.10;;
54005;SDS011;39919;38.160;-122.260;2023-02-07T01:26:50;1.15;;;0.08;;
54005;SDS011;39919;38.160;-122.260;2023-02-07T01:29:19;1.55;;;0.00;;
54005;SDS011;39919;38.160;-122.260;2023-02-07T01:31:48;2.33;;;0.00;;
54005;SDS011;39919;38.160;-122.260;2023-02-07T01:34:20;0.17;;;0.00;;
54005;SDS011;39919;38.160;-122.260;2023-02-07T01:36:50;0.80;;;0.10;;
54005;SDS011;39919;38.160;-122.260;2023-02-07T01:39:20;0.22;;;0.00;;
54005;SDS011;39919;38.160;-122.260;2023-02-07T01:41:49;0.73;;;0.30;;
54005;SDS011;39919;38.160;-122.260;2023-02-07T01:47:27;0.00;;;0.00;;
54005;SDS011;39919;38.160;-122.260;2023-02-07T01:49:58;0.75;;;0.00;;
54005;SDS011;39919;38.160;-122.260;2023-02-07T01:52:28;0.60;;;0.00;;
54005;SDS011;39919;38.160;-122.260;2023-02-07T01:55:01;3.60;;;0.20;;
54005;SDS011;39919;38.160;-122.260;2023-02-07T01:57:33;0.10;;;0.00;;
54005;SDS011;39919;38.160;-122.260;2023-02-07T02:00:03;0.50;;;0.10;;
54005;SDS011;39919;38.160;-122.260;2023-02-07T02:02:34;1.55;;;0.00;;
54005;SDS011;39919;38.160;-122.260;2023-02-07T02:05:06;1.67;;;0.10;;
54005;SDS011;39919;38.160;-122.260;2023-02-07T02:07:37;1.45;;;0.10;;
54005;SDS011;39919;38.160;-122.260;2023-02-07T02:10:11;0.55;;;0.10;;
54005;SDS011;39919;38.160;-122.260;2023-02-07T02:12:46;1.95;;;0.10;;
54005;SDS011;39919;38.160;-122.260;2023-02-07T02:15:33;2.35;;;0.08;;
54005;SDS011;39919;38.160;-122.260;2023-02-07T02:18:12;0.63;;;0.10;;
54005;SDS011;39919;38.160;-122.260;2023-02-07T02:24:03;1.42;;;0.10;;
54005;SDS011;39919;38.160;-122.260;2023-02-07T02:26:55;0.95;;;0.10;;
54005;SDS011;39919;38.160;-122.260;2023-02-07T02:29:36;0.70;;;0.22;;
54005;SDS011;39919;38.160;-122.260;2023-02-07T02:35:21;2.00;;;0.10;;
54005;SDS011;39919;38.160;-122.260;2023-02-07T02:37:59;0.98;;;0.10;;
54005;SDS011;39919;38.160;-122.260;2023-02-07T02:40:38;2.60;;;0.15;;
54005;SDS011;39919;38.160;-122.260;2023-02-07T02:43:12;1.45;;;0.30;;
54005;SDS011;39919;38.160;-122.260;2023-02-07T02:45:51;10.38;;;0.88;;
54005;SDS011;39919;38.160;-122.260;2023-02-07T02:48:25;3.22;;;0.45;;
54005;SDS011;39919;38.160;-122.260;2023-02-07T02:50:56;5.32;;;0.60;;
54005;SDS011;39919;38.160;-122.260;2023-02-07T02:53:27;1.45;;;0.30;;
54005;SDS011;39919;38.160;-122.260;2023-02-07T02:59:03;6.90;;;0.43;;
54005;SDS011;39919;38.160;-122.260;2023-02-07T03:01:52;3.00;;;0.50;;
54005;SDS011;39919;38.160;-122.260;2023-02-07T03:04:36;6.07;;;1.00;;
54005;SDS011;39919;38.160;-122.260;2023-02-07T03:07:37;4.13;;;1.10;;
54005;SDS011;39919;38.160;-122.260;2023-02-07T03:10:18;8.15;;;2.60;;
54005;SDS011;39919;38.160;-122.260;2023-02-07T03:12:59;13.80;;;1.83;;
54005;SDS011;39919;38.160;-122.260;2023-02-07T03:18:12;7.05;;;2.58;;
54005;SDS011;39919;38.160;-122.260;2023-02-07T03:20:48;12.48;;;3.60;;
54005;SDS011;39919;38.160;-122.260;2023-02-07T03:23:20;4.28;;;0.93;;
54005;SDS011;39919;38.160;-122.260;2023-02-07T03:25:50;5.40;;;0.75;;
54005;SDS011;39919;38.160;-122.260;2023-02-07T03:28:20;5.20;;;1.25;;
54005;SDS011;39919;38.160;-122.260;2023-02-07T03:30:55;4.03;;;0.90;;
54005;SDS011;39919;38.160;-122.260;2023-02-07T03:33:28;3.08;;;1.55;;
54005;SDS011;39919;38.160;-122.260;2023-02-07T03:36:02;12.00;;;1.83;;
54005;SDS011;39919;38.160;-122.260;2023-02-07T03:38:37;5.15;;;0.90;;
54005;SDS011;39919;38.160;-122.260;2023-02-07T03:41:08;9.52;;;1.50;;
54005;SDS011;39919;38.160;-122.260;2023-02-07T03:43:41;8.75;;;1.80;;
54005;SDS011;39919;38.160;-122.260;2023-02-07T03:46:11;7.78;;;2.08;;
54005;SDS011;39919;38.160;-122.260;2023-02-07T03:48:43;5.38;;;1.38;;
54005;SDS011;39919;38.160;-122.260;2023-02-07T03:51:17;4.38;;;1.35;;
54005;SDS011;39919;38.160;-122.260;2023-02-07T03:53:49;7.93;;;2.00;;
54005;SDS011;39919;38.160;-122.260;2023-02-07T03:56:24;10.57;;;2.65;;
54005;SDS011;39919;38.160;-122.260;2023-02-07T03:59:07;12.82;;;2.20;;
54005;SDS011;39919;38.160;-122.260;2023-02-07T04:04:26;5.22;;;1.45;;
54005;SDS011;39919;38.160;-122.260;2023-02-07T04:06:57;12.05;;;2.40;;
54005;SDS011;39919;38.160;-122.260;2023-02-07T04:09:27;10.45;;;2.00;;
54005;SDS011;39919;38.160;-122.260;2023-02-07T04:11:56;5.57;;;1.48;;
54005;SDS011;39919;38.160;-122.260;2023-02-07T04:14:25;5.68;;;1.02;;
54005;SDS011;39919;38.160;-122.260;2023-02-07T04:16:54;10.52;;;2.25;;
54005;SDS011;39919;38.160;-122.260;2023-02-07T04:19:24;6.13;;;1.42;;
54005;SDS011;39919;38.160;-122.260;2023-02-07T04:21:55;3.22;;;1.08;;
54005;SDS011;39919;38.160;-122.260;2023-02-07T04:24:26;4.03;;;1.63;;
54005;SDS011;39919;38.160;-122.260;2023-02-07T04:27:00;8.52;;;1.50;;
54005;SDS011;39919;38.160;-122.260;2023-02-07T04:29:30;13.50;;;2.00;;
54005;SDS011;39919;38.160;-122.260;2023-02-07T04:31:59;5.88;;;1.73;;
54005;SDS011;39919;38.160;-122.260;2023-02-07T04:34:29;5.18;;;1.33;;
54005;SDS011;39919;38.160;-122.260;2023-02-07T04:37:00;7.03;;;1.67;;
54005;SDS011;39919;38.160;-122.260;2023-02-07T04:39:29;7.95;;;0.80;;
54005;SDS011;39919;38.160;-122.260;2023-02-07T04:42:01;9.50;;;1.08;;
54005;SDS011;39919;38.160;-122.260;2023-02-07T04:44:34;4.50;;;0.95;;
54005;SDS011;39919;38.160;-122.260;2023-02-07T04:47:03;5.55;;;0.73;;
54005;SDS011;39919;38.160;-122.260;2023-02-07T04:49:33;7.80;;;1.05;;
54005;SDS011;39919;38.160;-122.260;2023-02-07T04:52:03;6.82;;;1.58;;
54005;SDS011;39919;38.160;-122.260;2023-02-07T04:54:33;4.40;;;1.10;;
54005;SDS011;39919;38.160;-122.260;2023-02-07T04:57:02;8.13;;;1.35;;
54005;SDS011;39919;38.160;-122.260;2023-02-07T04:59:31;9.77;;;1.23;;
54005;SDS011;39919;38.160;-122.260;2023-02-07T05:02:00;10.25;;;1.38;;
54005;SDS011;39919;38.160;-122.260;2023-02-07T05:04:30;7.93;;;1.20;;
54005;SDS011;39919;38.160;-122.260;2023-02-07T05:06:59;6.40;;;1.33;;
54005;SDS011;39919;38.160;-122.260;2023-02-07T05:09:30;16.23;;;1.80;;
54005;SDS011;39919;38.160;-122.260;2023-02-07T05:11:59;9.50;;;1.83;;
54005;SDS011;39919;38.160;-122.260;2023-02-07T05:14:28;11.43;;;1.60;;
54005;SDS011;39919;38.160;-122.260;2023-02-07T05:16:57;14.50;;;1.95;;
54005;SDS011;39919;38.160;-122.260;2023-02-07T05:19:26;9.23;;;1.58;;
54005;SDS011;39919;38.160;-122.260;2023-02-07T05:21:56;5.65;;;1.50;;
54005;SDS011;39919;38.160;-122.260;2023-02-07T05:24:25;6.22;;;1.05;;
54005;SDS011;39919;38.160;-122.260;2023-02-07T05:26:56;6.03;;;1.30;;
54005;SDS011;39919;38.160;-122.260;2023-02-07T05:29:25;8.00;;;1.23;;
54005;SDS011;39919;38.160;-122.260;2023-02-07T05:31:54;6.90;;;1.13;;
54005;SDS011;39919;38.160;-122.260;2023-02-07T05:34:40;3.30;;;1.00;;
54005;SDS011;39919;38.160;-122.260;2023-02-07T05:37:09;8.95;;;1.42;;
54005;SDS011;39919;38.160;-122.260;2023-02-07T05:39:47;10.57;;;1.45;;
54005;SDS011;39919;38.160;-122.260;2023-02-07T05:45:09;5.13;;;1.05;;
54005;SDS011;39919;38.160;-122.260;2023-02-07T05:47:48;3.22;;;0.73;;
54005;SDS011;39919;38.160;-122.260;2023-02-07T05:53:30;12.43;;;2.00;;
54005;SDS011;39919;38.160;-122.260;2023-02-07T05:55:59;5.32;;;0.98;;
54005;SDS011;39919;38.160;-122.260;2023-02-07T05:58:30;4.80;;;0.90;;
54005;SDS011;39919;38.160;-122.260;2023-02-07T06:00:59;6.28;;;1.38;;
54005;SDS011;39919;38.160;-122.260;2023-02-07T06:03:28;7.25;;;0.93;;
54005;SDS011;39919;38.160;-122.260;2023-02-07T06:05:58;11.93;;;1.95;;
54005;SDS011;39919;38.160;-122.260;2023-02-07T06:08:27;6.00;;;1.08;;
54005;SDS011;39919;38.160;-122.260;2023-02-07T06:10:56;5.63;;;1.55;;
54005;SDS011;39919;38.160;-122.260;2023-02-07T06:13:25;7.25;;;1.42;;
54005;SDS011;39919;38.160;-122.260;2023-02-07T06:15:56;7.90;;;0.82;;
54005;SDS011;39919;38.160;-122.260;2023-02-07T06:18:27;4.80;;;1.00;;
54005;SDS011;39919;38.160;-122.260;2023-02-07T06:20:56;3.95;;;1.17;;
54005;SDS011;39919;38.160;-122.260;2023-02-07T06:23:28;2.55;;;0.43;;
54005;SDS011;39919;38.160;-122.260;2023-02-07T06:25:58;6.90;;;0.65;;
54005;SDS011;39919;38.160;-122.260;2023-02-07T06:28:27;9.35;;;1.15;;
54005;SDS011;39919;38.160;-122.260;2023-02-07T06:30:58;10.15;;;1.20;;
54005;SDS011;39919;38.160;-122.260;2023-02-07T06:33:27;5.18;;;1.35;;
54005;SDS011;39919;38.160;-122.260;2023-02-07T06:35:57;9.57;;;1.15;;
54005;SDS011;39919;38.160;-122.260;2023-02-07T06:38:26;8.65;;;0.98;;
54005;SDS011;39919;38.160;-122.260;2023-02-07T06:40:55;3.85;;;0.60;;
54005;SDS011;39919;38.160;-122.260;2023-02-07T06:43:24;5.05;;;0.88;;
54005;SDS011;39919;38.160;-122.260;2023-02-07T06:45:53;4.20;;;0.95;;
54005;SDS011;39919;38.160;-122.260;2023-02-07T06:48:24;6.22;;;1.00;;
54005;SDS011;39919;38.160;-122.260;2023-02-07T06:50:54;7.28;;;0.57;;
54005;SDS011;39919;38.160;-122.260;2023-02-07T06:53:23;8.95;;;0.90;;
54005;SDS011;39919;38.160;-122.260;2023-02-07T06:55:53;4.18;;;0.75;;
54005;SDS011;39919;38.160;-122.260;2023-02-07T06:58:22;11.10;;;1.05;;
54005;SDS011;39919;38.160;-122.260;2023-02-07T07:00:51;5.13;;;0.68;;
54005;SDS011;39919;38.160;-122.260;2023-02-07T07:03:20;2.20;;;1.05;;
54005;SDS011;39919;38.160;-122.260;2023-02-07T07:05:55;8.18;;;1.33;;
54005;SDS011;39919;38.160;-122.260;2023-02-07T07:08:25;10.45;;;1.27;;
54005;SDS011;39919;38.160;-122.260;2023-02-07T07:10:55;4.72;;;0.65;;
54005;SDS011;39919;38.160;-122.260;2023-02-07T07:13:24;4.50;;;1.10;;
54005;SDS011;39919;38.160;-122.260;2023-02-07T07:15:53;9.05;;;1.55;;
54005;SDS011;39919;38.160;-122.260;2023-02-07T07:18:22;10.95;;;2.55;;
54005;SDS011;39919;38.160;-122.260;2023-02-07T07:20:52;14.88;;;4.10;;
54005;SDS011;39919;38.160;-122.260;2023-02-07T07:23:23;6.68;;;3.20;;
54005;SDS011;39919;38.160;-122.260;2023-02-07T07:25:52;11.15;;;4.18;;
54005;SDS011;39919;38.160;-122.260;2023-02-07T07:28:21;9.90;;;3.55;;
54005;SDS011;39919;38.160;-122.260;2023-02-07T07:30:50;7.80;;;2.78;;
54005;SDS011;39919;38.160;-122.260;2023-02-07T07:33:20;11.30;;;3.55;;
54005;SDS011;39919;38.160;-122.260;2023-02-07T07:35:55;6.80;;;1.92;;
54005;SDS011;39919;38.160;-122.260;2023-02-07T07:38:24;10.93;;;1.83;;
54005;SDS011;39919;38.160;-122.260;2023-02-07T07:40:56;10.95;;;2.17;;
54005;SDS011;39919;38.160;-122.260;2023-02-07T07:43:28;8.43;;;2.42;;
54005;SDS011;39919;38.160;-122.260;2023-02-07T07:45:57;9.35;;;2.53;;
54005;SDS011;39919;38.160;-122.260;2023-02-07T07:48:32;10.15;;;3.20;;
54005;SDS011;39919;38.160;-122.260;2023-02-07T07:51:03;6.72;;;2.20;;
54005;SDS011;39919;38.160;-122.260;2023-02-07T07:53:32;8.07;;;2.20;;
54005;SDS011;39919;38.160;-122.260;2023-02-07T07:56:01;13.93;;;2.28;;
54005;SDS011;39919;38.160;-122.260;2023-02-07T07:58:31;11.23;;;2.80;;
54005;SDS011;39919;38.160;-122.260;2023-02-07T08:01:00;8.05;;;2.53;;
54005;SDS011;39919;38.160;-122.260;2023-02-07T08:03:29;11.68;;;3.15;;
54005;SDS011;39919;38.160;-122.260;2023-02-07T08:05:58;12.05;;;2.80;;
54005;SDS011;39919;38.160;-122.260;2023-02-07T08:08:29;9.40;;;2.25;;
54005;SDS011;39919;38.160;-122.260;2023-02-07T08:10:59;11.52;;;2.28;;
54005;SDS011;39919;38.160;-122.260;2023-02-07T08:13:31;6.90;;;1.77;;
54005;SDS011;39919;38.160;-122.260;2023-02-07T08:16:03;12.63;;;2.17;;
54005;SDS011;39919;38.160;-122.260;2023-02-07T08:18:33;9.55;;;2.25;;
54005;SDS011;39919;38.160;-122.260;2023-02-07T08:21:03;9.57;;;1.83;;
54005;SDS011;39919;38.160;-122.260;2023-02-07T08:23:48;12.60;;;3.13;;
54005;SDS011;39919;38.160;-122.260;2023-02-07T08:26:17;7.70;;;1.73;;
54005;SDS011;39919;38.160;-122.260;2023-02-07T08:28:47;7.85;;;1.90;;
54005;SDS011;39919;38.160;-122.260;2023-02-07T08:31:17;9.50;;;2.80;;
54005;SDS011;39919;38.160;-122.260;2023-02-07T08:33:46;9.65;;;2.50;;
54005;SDS011;39919;38.160;-122.260;2023-02-07T08:39:07;6.47;;;1.83;;
54005;SDS011;39919;38.160;-122.260;2023-02-07T08:41:36;9.57;;;2.55;;
54005;SDS011;39919;38.160;-122.260;2023-02-07T08:44:06;6.88;;;1.58;;
54005;SDS011;39919;38.160;-122.260;2023-02-07T08:46:35;10.93;;;1.65;;
54005;SDS011;39919;38.160;-122.260;2023-02-07T08:49:04;5.38;;;1.27;;
54005;SDS011;39919;38.160;-122.260;2023-02-07T08:51:33;5.18;;;1.30;;
54005;SDS011;39919;38.160;-122.260;2023-02-07T08:54:02;7.65;;;1.35;;
54005;SDS011;39919;38.160;-122.260;2023-02-07T08:56:33;4.32;;;1.05;;
54005;SDS011;39919;38.160;-122.260;2023-02-07T08:59:03;3.75;;;1.10;;
54005;SDS011;39919;38.160;-122.260;2023-02-07T09:04:34;6.85;;;1.02;;
54005;SDS011;39919;38.160;-122.260;2023-02-07T09:07:06;7.40;;;1.83;;
54005;SDS011;39919;38.160;-122.260;2023-02-07T09:09:35;5.60;;;1.75;;
54005;SDS011;39919;38.160;-122.260;2023-02-07T09:12:06;8.88;;;1.50;;
54005;SDS011;39919;38.160;-122.260;2023-02-07T09:14:36;9.68;;;1.77;;
54005;SDS011;39919;38.160;-122.260;2023-02-07T09:17:05;8.35;;;1.42;;
54005;SDS011;39919;38.160;-122.260;2023-02-07T09:19:35;4.60;;;1.48;;
54005;SDS011;39919;38.160;-122.260;2023-02-07T09:22:07;8.25;;;1.25;;
54005;SDS011;39919;38.160;-122.260;2023-02-07T09:24:37;8.85;;;1.67;;
54005;SDS011;39919;38.160;-122.260;2023-02-07T09:27:08;6.13;;;1.13;;
54005;SDS011;39919;38.160;-122.260;2023-02-07T09:29:37;5.35;;;0.85;;
54005;SDS011;39919;38.160;-122.260;2023-02-07T09:32:09;5.03;;;1.55;;
54005;SDS011;39919;38.160;-122.260;2023-02-07T09:34:38;8.60;;;1.77;;
54005;SDS011;39919;38.160;-122.260;2023-02-07T09:37:07;8.60;;;1.13;;
54005;SDS011;39919;38.160;-122.260;2023-02-07T09:39:37;8.68;;;1.08;;
54005;SDS011;39919;38.160;-122.260;2023-02-07T09:42:12;8.32;;;1.95;;
54005;SDS011;39919;38.160;-122.260;2023-02-07T09:44:51;4.88;;;0.80;;
54005;SDS011;39919;38.160;-122.260;2023-02-07T09:47:23;2.17;;;0.50;;
54005;SDS011;39919;38.160;-122.260;2023-02-07T09:49:53;9.65;;;0.90;;
54005;SDS011;39919;38.160;-122.260;2023-02-07T09:52:27;8.95;;;1.75;;
54005;SDS011;39919;38.160;-122.260;2023-02-07T09:55:00;5.00;;;0.88;;
54005;SDS011;39919;38.160;-122.260;2023-02-07T09:57:39;2.95;;;0.40;;
54005;SDS011;39919;38.160;-122.260;2023-02-07T10:00:18;3.35;;;0.68;;
54005;SDS011;39919;38.160;-122.260;2023-02-07T10:02:51;11.65;;;1.38;;
54005;SDS011;39919;38.160;-122.260;2023-02-07T10:05:26;4.20;;;0.60;;
54005;SDS011;39919;38.160;-122.260;2023-02-07T10:07:59;4.15;;;0.55;;
54005;SDS011;39919;38.160;-122.260;2023-02-07T10:10:30;6.38;;;1.05;;
54005;SDS011;39919;38.160;-122.260;2023-02-07T10:16:09;6.28;;;0.82;;
54005;SDS011;39919;38.160;-122.260;2023-02-07T10:18:46;5.63;;;1.00;;
54005;SDS011;39919;38.160;-122.260;2023-02-07T10:21:23;7.22;;;0.73;;
54005;SDS011;39919;38.160;-122.260;2023-02-07T10:26:53;3.42;;;1.42;;
54005;SDS011;39919;38.160;-122.260;2023-02-07T10:29:44;5.40;;;0.90;;
54005;SDS011;39919;38.160;-122.260;2023-02-07T10:32:24;3.67;;;0.60;;
54005;SDS011;39919;38.160;-122.260;2023-02-07T10:34:55;4.65;;;1.20;;
54005;SDS011;39919;38.160;-122.260;2023-02-07T10:37:28;4.70;;;0.85;;
54005;SDS011;39919;38.160;-122.260;2023-02-07T10:40:10;3.55;;;0.38;;
54005;SDS011;39919;38.160;-122.260;2023-02-07T10:42:42;5.40;;;0.75;;
54005;SDS011;39919;38.160;-122.260;2023-02-07T10:45:17;3.28;;;0.40;;
54005;SDS011;39919;38.160;-122.260;2023-02-07T10:47:46;5.28;;;0.50;;
54005;SDS011;39919;38.160;-122.260;2023-02-07T10:50:18;5.20;;;0.98;;
54005;SDS011;39919;38.160;-122.260;2023-02-07T10:52:49;3.83;;;0.80;;
54005;SDS011;39919;38.160;-122.260;2023-02-07T10:55:32;4.22;;;0.70;;
54005;SDS011;39919;38.160;-122.260;2023-02-07T10:58:04;5.88;;;0.82;;
54005;SDS011;39919;38.160;-122.260;2023-02-07T11:00:35;4.38;;;0.60;;
54005;SDS011;39919;38.160;-122.260;2023-02-07T11:03:05;3.22;;;0.93;;
54005;SDS011;39919;38.160;-122.260;2023-02-07T11:05:40;8.15;;;1.17;;
54005;SDS011;39919;38.160;-122.260;2023-02-07T11:08:21;6.00;;;0.75;;
54005;SDS011;39919;38.160;-122.260;2023-02-07T11:10:52;1.17;;;0.30;;
54005;SDS011;39919;38.160;-122.260;2023-02-07T11:13:23;4.82;;;0.52;;
54005;SDS011;39919;38.160;-122.260;2023-02-07T11:15:56;3.40;;;0.40;;
54005;SDS011;39919;38.160;-122.260;2023-02-07T11:18:31;2.28;;;0.40;;
54005;SDS011;39919;38.160;-122.260;2023-02-07T11:21:07;1.70;;;0.57;;
54005;SDS011;39919;38.160;-122.260;2023-02-07T11:23:49;10.93;;;4.55;;
54005;SDS011;39919;38.160;-122.260;2023-02-07T11:26:23;6.53;;;1.83;;
54005;SDS011;39919;38.160;-122.260;2023-02-07T11:28:52;9.73;;;2.67;;
54005;SDS011;39919;38.160;-122.260;2023-02-07T11:31:31;8.40;;;1.55;;
54005;SDS011;39919;38.160;-122.260;2023-02-07T11:34:07;6.47;;;1.23;;
54005;SDS011;39919;38.160;-122.260;2023-02-07T11:36:47;4.97;;;0.75;;
54005;SDS011;39919;38.160;-122.260;2023-02-07T11:39:18;7.15;;;1.08;;
54005;SDS011;39919;38.160;-122.260;2023-02-07T11:41:53;9.38;;;1.55;;
54005;SDS011;39919;38.160;-122.260;2023-02-07T11:44:26;5.18;;;0.45;;
54005;SDS011;39919;38.160;-122.260;2023-02-07T11:47:02;3.72;;;0.50;;
54005;SDS011;39919;38.160;-122.260;2023-02-07T11:49:43;6.03;;;0.45;;
54005;SDS011;39919;38.160;-122.260;2023-02-07T11:52:15;3.05;;;0.55;;
54005;SDS011;39919;38.160;-122.260;2023-02-07T11:54:47;4.35;;;0.60;;
54005;SDS011;39919;38.160;-122.260;2023-02-07T11:57:19;4.18;;;1.15;;
54005;SDS011;39919;38.160;-122.260;2023-02-07T11:59:51;3.28;;;0.50;;
54005;SDS011;39919;38.160;-122.260;2023-02-07T12:02:33;6.18;;;0.85;;
54005;SDS011;39919;38.160;-122.260;2023-02-07T12:05:12;4.10;;;0.60;;
54005;SDS011;39919;38.160;-122.260;2023-02-07T12:07:47;1.65;;;0.30;;
54005;SDS011;39919;38.160;-122.260;2023-02-07T12:10:21;3.80;;;0.55;;
54005;SDS011;39919;38.160;-122.260;2023-02-07T12:12:55;1.95;;;0.60;;
54005;SDS011;39919;38.160;-122.260;2023-02-07T12:15:27;3.35;;;0.93;;
54005;SDS011;39919;38.160;-122.260;2023-02-07T12:18:04;6.97;;;0.88;;
54005;SDS011;39919;38.160;-122.260;2023-02-07T12:23:17;5.60;;;0.55;;
54005;SDS011;39919;38.160;-122.260;2023-02-07T12:25:51;1.98;;;0.40;;
54005;SDS011;39919;38.160;-122.260;2023-02-07T12:28:24;5.07;;;0.50;;
54005;SDS011;39919;38.160;-122.260;2023-02-07T12:30:58;4.28;;;0.70;;
54005;SDS011;39919;38.160;-122.260;2023-02-07T12:33:37;2.72;;;0.50;;
54005;SDS011;39919;38.160;-122.260;2023-02-07T12:36:13;2.30;;;0.55;;
54005;SDS011;39919;38.160;-122.260;2023-02-07T12:38:50;3.60;;;0.60;;
54005;SDS011;39919;38.160;-122.260;2023-02-07T12:41:29;3.50;;;0.70;;
54005;SDS011;39919;38.160;-122.260;2023-02-07T12:44:05;6.60;;;0.50;;
54005;SDS011;39919;38.160;-122.260;2023-02-07T12:49:24;3.78;;;0.50;;
54005;SDS011;39919;38.160;-122.260;2023-02-07T12:52:17;6.32;;;0.50;;
54005;SDS011;39919;38.160;-122.260;2023-02-07T12:57:30;6.00;;;0.40;;
54005;SDS011;39919;38.160;-122.260;2023-02-07T13:00:04;5.53;;;0.60;;
54005;SDS011;39919;38.160;-122.260;2023-02-07T13:02:45;4.55;;;1.17;;
54005;SDS011;39919;38.160;-122.260;2023-02-07T13:08:23;2.05;;;0.30;;
54005;SDS011;39919;38.160;-122.260;2023-02-07T13:11:02;6.10;;;1.27;;
54005;SDS011;39919;38.160;-122.260;2023-02-07T13:13:45;2.03;;;0.60;;
54005;SDS011;39919;38.160;-122.260;2023-02-07T13:16:26;9.98;;;1.23;;
54005;SDS011;39919;38.160;-122.260;2023-02-07T13:21:38;2.17;;;0.63;;
54005;SDS011;39919;38.160;-122.260;2023-02-07T13:24:13;1.85;;;0.57;;
54005;SDS011;39919;38.160;-122.260;2023-02-07T13:26:47;8.32;;;1.15;;
54005;SDS011;39919;38.160;-122.260;2023-02-07T13:29:21;1.63;;;0.40;;
54005;SDS011;39919;38.160;-122.260;2023-02-07T13:31:52;1.73;;;0.30;;
54005;SDS011;39919;38.160;-122.260;2023-02-07T13:34:25;8.30;;;0.85;;
54005;SDS011;39919;38.160;-122.260;2023-02-07T13:36:59;4.38;;;1.05;;
54005;SDS011;39919;38.160;-122.260;2023-02-07T13:39:35;2.05;;;0.40;;
54005;SDS011;39919;38.160;-122.260;2023-02-07T13:42:15;2.90;;;0.40;;
54005;SDS011;39919;38.160;-122.260;2023-02-07T13:44:52;2.22;;;0.35;;
54005;SDS011;39919;38.160;-122.260;2023-02-07T13:47:32;3.78;;;0.93;;
54005;SDS011;39919;38.160;-122.260;2023-02-07T13:50:20;0.90;;;0.20;;
54005;SDS011;39919;38.160;-122.260;2023-02-07T13:53:02;10.68;;;0.40;;
54005;SDS011;39919;38.160;-122.260;2023-02-07T13:55:38;4.38;;;0.60;;
54005;SDS011;39919;38.160;-122.260;2023-02-07T14:01:27;0.38;;;0.15;;
54005;SDS011;39919;38.160;-122.260;2023-02-07T14:04:01;1.50;;;0.40;;
54005;SDS011;39919;38.160;-122.260;2023-02-07T14:06:32;6.72;;;0.30;;
54005;SDS011;39919;38.160;-122.260;2023-02-07T14:09:06;8.60;;;0.90;;
54005;SDS011;39919;38.160;-122.260;2023-02-07T14:11:43;1.88;;;0.45;;
54005;SDS011;39919;38.160;-122.260;2023-02-07T14:14:15;3.25;;;0.52;;
54005;SDS011;39919;38.160;-122.260;2023-02-07T14:16:51;1.25;;;0.28;;
54005;SDS011;39919;38.160;-122.260;2023-02-07T14:22:20;2.90;;;0.40;;
54005;SDS011;39919;38.160;-122.260;2023-02-07T14:30:55;8.48;;;0.57;;
54005;SDS011;39919;38.160;-122.260;2023-02-07T14:33:34;4.60;;;0.52;;
54005;SDS011;39919;38.160;-122.260;2023-02-07T14:36:18;8.57;;;1.30;;
54005;SDS011;39919;38.160;-122.260;2023-02-07T14:39:02;5.00;;;0.70;;
54005;SDS011;39919;38.160;-122.260;2023-02-07T14:41:49;6.80;;;0.50;;
54005;SDS011;39919;38.160;-122.260;2023-02-07T14:44:22;3.92;;;0.68;;
54005;SDS011;39919;38.160;-122.260;2023-02-07T14:46:55;3.88;;;0.60;;
54005;SDS011;39919;38.160;-122.260;2023-02-07T14:49:28;6.88;;;0.68;;
54005;SDS011;39919;38.160;-122.260;2023-02-07T14:52:02;7.10;;;1.17;;
54005;SDS011;39919;38.160;-122.260;2023-02-07T14:54:36;13.63;;;1.55;;
54005;SDS011;39919;38.160;-122.260;2023-02-07T14:57:17;4.55;;;0.93;;
54005;SDS011;39919;38.160;-122.260;2023-02-07T15:00:00;4.90;;;0.75;;
54005;SDS011;39919;38.160;-122.260;2023-02-07T15:02:33;5.38;;;0.60;;
54005;SDS011;39919;38.160;-122.260;2023-02-07T15:05:17;3.85;;;1.05;;
54005;SDS011;39919;38.160;-122.260;2023-02-07T15:07:47;3.55;;;0.70;;
54005;SDS011;39919;38.160;-122.260;2023-02-07T15:10:23;11.27;;;1.48;;
54005;SDS011;39919;38.160;-122.260;2023-02-07T15:12:55;7.05;;;1.25;;
54005;SDS011;39919;38.160;-122.260;2023-02-07T15:15:26;9.98;;;0.73;;
54005;SDS011;39919;38.160;-122.260;2023-02-07T15:17:57;3.95;;;0.82;;
54005;SDS011;39919;38.160;-122.260;2023-02-07T15:20:28;4.38;;;1.00;;
54005;SDS011;39919;38.160;-122.260;2023-02-07T15:22:59;1.88;;;0.50;;
54005;SDS011;39919;38.160;-122.260;2023-02-07T15:25:32;1.83;;;0.43;;
54005;SDS011;39919;38.160;-122.260;2023-02-07T15:28:04;3.13;;;0.40;;
54005;SDS011;39919;38.160;-122.260;2023-02-07T15:30:53;0.85;;;0.40;;
54005;SDS011;39919;38.160;-122.260;2023-02-07T15:33:23;4.43;;;0.73;;
54005;SDS011;39919;38.160;-122.260;2023-02-07T15:35:53;5.15;;;1.27;;
54005;SDS011;39919;38.160;-122.260;2023-02-07T15:38:23;5.97;;;1.58;;
54005;SDS011;39919;38.160;-122.260;2023-02-07T15:40:54;3.45;;;1.05;;
54005;SDS011;39919;38.160;-122.260;2023-02-07T15:43:27;6.40;;;0.70;;